createdAt,value
2019-05-26T00:01:08.294Z,20.00
2019-05-26T00:03:37.281Z,20.00
2019-05-26T00:06:06.282Z,20.00
2019-05-26T00:08:35.262Z,20.00
2019-05-26T00:11:04.678Z,20.00
2019-05-26T00:13:33.658Z,20.00
2019-05-26T00:16:02.652Z,20.00
2019-05-26T00:18:33.420Z,20.00
2019-05-26T00:21:02.717Z,20.10
2019-05-26T00:23:31.994Z,20.00
2019-05-26T00:26:01.012Z,19.90
2019-05-26T00:28:30.073Z,19.90
2019-05-26T00:30:59.102Z,20.00
2019-05-26T00:33:29.403Z,20.00
2019-05-26T00:35:58.489Z,19.90
2019-05-26T00:38:27.905Z,19.90
2019-05-26T00:40:56.953Z,19.90
2019-05-26T00:43:25.949Z,19.90
2019-05-26T00:45:55.286Z,20.00
2019-05-26T00:48:24.283Z,20.00
2019-05-26T00:50:53.269Z,20.00
2019-05-26T00:53:22.571Z,20.00
2019-05-26T00:55:51.558Z,20.10
2019-05-26T00:58:20.557Z,20.10
2019-05-26T01:00:49.545Z,20.10
2019-05-26T01:03:18.530Z,20.20
2019-05-26T01:05:47.872Z,20.30
2019-05-26T01:08:16.846Z,20.30
2019-05-26T01:10:45.847Z,20.30
2019-05-26T01:13:14.834Z,20.30
2019-05-26T01:15:43.868Z,20.40
2019-05-26T01:18:12.923Z,20.40
2019-05-26T01:20:42.221Z,20.30
2019-05-26T01:23:11.212Z,20.30
2019-05-26T01:25:40.513Z,20.30
2019-05-26T01:28:09.585Z,20.30
2019-05-26T01:30:39.216Z,20.20
2019-05-26T01:33:08.206Z,20.00
2019-05-26T01:35:38.933Z,20.00
2019-05-26T01:38:22.665Z,20.00
2019-05-26T01:40:39.681Z,20.00
2019-05-26T01:43:08.752Z,20.00
2019-05-26T01:45:37.737Z,20.10
2019-05-26T01:48:07.688Z,19.90
2019-05-26T01:50:37.746Z,19.90
2019-05-26T01:53:07.126Z,19.80
2019-05-26T01:55:36.534Z,19.80
2019-05-26T01:58:05.515Z,19.90
2019-05-26T02:00:34.517Z,19.90
2019-05-26T02:03:03.499Z,19.80
2019-05-26T02:05:33.931Z,19.80
2019-05-26T02:08:02.930Z,19.70
2019-05-26T02:10:31.997Z,19.70
2019-05-26T02:13:00.978Z,19.80
2019-05-26T02:15:30.414Z,19.90
2019-05-26T02:17:59.406Z,19.90
2019-05-26T02:20:28.820Z,19.90
2019-05-26T02:22:57.807Z,19.70
2019-05-26T02:25:27.209Z,19.80
2019-05-26T02:27:56.190Z,19.90
2019-05-26T02:30:25.170Z,19.90
2019-05-26T02:32:54.180Z,19.80
2019-05-26T02:35:23.168Z,19.70
2019-05-26T02:37:52.600Z,19.70
2019-05-26T02:40:21.613Z,19.60
2019-05-26T02:42:50.614Z,19.50
2019-05-26T02:45:20.106Z,19.60
2019-05-26T02:47:49.068Z,19.50
2019-05-26T02:50:18.068Z,19.60
2019-05-26T02:52:47.460Z,19.60
2019-05-26T02:55:16.464Z,19.70
2019-05-26T02:57:45.858Z,19.80
2019-05-26T03:00:15.220Z,19.70
2019-05-26T03:02:44.202Z,19.70
2019-05-26T03:05:13.573Z,19.80
2019-05-26T03:07:43.538Z,19.80
2019-05-26T03:10:13.373Z,19.70
2019-05-26T03:12:42.662Z,19.70
2019-05-26T03:15:12.649Z,19.60
2019-05-26T03:17:41.885Z,19.50
2019-05-26T03:20:12.138Z,19.60
2019-05-26T03:22:41.513Z,19.70
2019-05-26T03:25:10.870Z,19.60
2019-05-26T03:27:40.435Z,19.70
2019-05-26T03:30:11.957Z,19.80
2019-05-26T03:32:42.012Z,19.80
2019-05-26T03:35:11.029Z,19.80
2019-05-26T03:37:40.021Z,19.70
2019-05-26T03:40:09.400Z,19.70
2019-05-26T03:42:38.396Z,19.60
2019-05-26T03:45:07.463Z,19.60
2019-05-26T03:47:36.436Z,19.60
2019-05-26T03:50:06.914Z,19.50
2019-05-26T03:52:35.922Z,19.50
2019-05-26T03:55:06.052Z,19.50
2019-05-26T03:57:35.069Z,19.50
2019-05-26T04:00:06.932Z,19.50
2019-05-26T04:02:35.911Z,19.40
2019-05-26T04:05:08.541Z,19.50
2019-05-26T04:07:37.530Z,19.50
2019-05-26T04:10:07.191Z,19.70
2019-05-26T04:12:36.202Z,19.70
2019-05-26T04:15:09.065Z,19.70
2019-05-26T04:17:38.056Z,19.70
2019-05-26T04:20:07.088Z,19.60
2019-05-26T04:22:36.082Z,19.70
2019-05-26T04:25:06.043Z,19.60
2019-05-26T04:27:35.046Z,19.60
2019-05-26T04:30:05.300Z,19.70
2019-05-26T04:32:34.305Z,19.60
2019-05-26T04:35:05.066Z,19.60
2019-05-26T04:37:34.477Z,19.70
2019-05-26T04:40:25.138Z,19.70
2019-05-26T04:42:35.741Z,19.70
2019-05-26T04:45:24.183Z,19.70
2019-05-26T04:47:53.478Z,19.70
2019-05-26T04:50:22.468Z,19.60
2019-05-26T04:53:05.216Z,19.70
2019-05-26T04:55:22.396Z,19.70
2019-05-26T04:57:52.455Z,19.60
2019-05-26T05:00:21.431Z,19.50
2019-05-26T05:02:50.430Z,19.50
2019-05-26T05:05:19.814Z,19.50
2019-05-26T05:07:48.819Z,19.50
2019-05-26T05:10:18.210Z,19.60
2019-05-26T05:12:47.554Z,19.50
2019-05-26T05:15:16.538Z,19.50
2019-05-26T05:17:45.922Z,19.50
2019-05-26T05:20:15.305Z,19.70
2019-05-26T05:22:44.314Z,19.60
2019-05-26T05:25:15.269Z,19.80
2019-05-26T05:27:44.582Z,19.70
2019-05-26T05:30:13.588Z,19.70
2019-05-26T05:32:42.572Z,19.70
2019-05-26T05:35:11.575Z,19.70
2019-05-26T05:37:40.554Z,19.70
2019-05-26T05:40:09.577Z,19.80
2019-05-26T05:42:38.533Z,19.70
2019-05-26T05:45:08.429Z,19.70
2019-05-26T05:47:37.487Z,19.80
2019-05-26T05:50:07.082Z,19.70
2019-05-26T05:52:36.422Z,19.80
2019-05-26T05:55:05.416Z,19.80
2019-05-26T05:57:34.410Z,19.90
2019-05-26T06:00:05.273Z,20.00
2019-05-26T06:02:34.293Z,20.00
2019-05-26T06:05:04.853Z,20.00
2019-05-26T06:07:33.856Z,20.00
2019-05-26T06:10:04.249Z,20.20
2019-05-26T06:12:33.250Z,20.20
2019-05-26T06:15:05.089Z,20.30
2019-05-26T06:17:53.877Z,20.40
2019-05-26T06:20:22.870Z,20.40
2019-05-26T06:22:51.846Z,20.40
2019-05-26T06:25:21.198Z,20.50
2019-05-26T06:27:50.443Z,20.60
2019-05-26T06:30:19.439Z,20.70
2019-05-26T06:32:48.779Z,20.80
2019-05-26T06:35:17.752Z,20.90
2019-05-26T06:37:47.074Z,21.00
2019-05-26T06:40:16.079Z,21.00
2019-05-26T06:42:45.067Z,21.10
2019-05-26T06:45:14.049Z,21.20
2019-05-26T06:47:43.490Z,21.20
2019-05-26T06:50:12.442Z,21.10
2019-05-26T06:52:41.449Z,21.20
2019-05-26T06:55:10.429Z,21.20
2019-05-26T06:57:39.843Z,21.30
2019-05-26T07:00:08.833Z,21.40
2019-05-26T07:02:37.830Z,21.40
2019-05-26T07:05:07.082Z,21.40
2019-05-26T07:07:36.078Z,21.60
2019-05-26T07:10:05.935Z,21.70
2019-05-26T07:12:34.915Z,22.00
2019-05-26T07:15:05.475Z,22.10
2019-05-26T07:17:34.453Z,22.20
2019-05-26T07:20:04.695Z,22.40
2019-05-26T07:22:33.710Z,22.60
2019-05-26T07:25:02.793Z,22.60
2019-05-26T07:27:31.798Z,22.60
2019-05-26T07:30:00.785Z,22.70
2019-05-26T07:32:29.788Z,22.70
2019-05-26T07:34:58.779Z,22.80
2019-05-26T07:37:27.782Z,22.90
2019-05-26T07:39:56.787Z,22.90
2019-05-26T07:42:26.124Z,23.00
2019-05-26T07:44:56.177Z,23.00
2019-05-26T07:47:25.185Z,23.10
2019-05-26T07:49:54.253Z,23.10
2019-05-26T07:52:23.260Z,23.10
2019-05-26T07:54:52.243Z,23.10
2019-05-26T07:57:21.324Z,23.10
2019-05-26T07:59:50.319Z,23.20
2019-05-26T08:02:19.707Z,23.20
2019-05-26T08:04:48.693Z,23.10
2019-05-26T08:07:17.690Z,23.10
2019-05-26T08:09:46.892Z,23.20
2019-05-26T08:12:25.417Z,23.30
2019-05-26T08:14:46.917Z,23.40
2019-05-26T08:17:15.903Z,23.40
2019-05-26T08:19:44.964Z,23.40
2019-05-26T08:22:14.314Z,23.40
2019-05-26T08:24:43.714Z,23.40
2019-05-26T08:27:12.706Z,23.40
2019-05-26T08:29:41.752Z,23.40
2019-05-26T08:32:10.739Z,23.40
2019-05-26T08:34:39.734Z,23.50
2019-05-26T08:37:08.722Z,23.50
2019-05-26T08:39:37.742Z,23.50
2019-05-26T08:42:07.073Z,23.50
2019-05-26T08:44:36.386Z,23.50
2019-05-26T08:47:05.389Z,23.50
2019-05-26T08:49:34.800Z,23.60
2019-05-26T08:52:03.805Z,23.60
2019-05-26T08:54:33.167Z,23.50
2019-05-26T08:57:03.127Z,23.60
2019-05-26T08:59:32.101Z,23.60
2019-05-26T09:02:01.290Z,23.70
2019-05-26T09:04:30.338Z,23.80
2019-05-26T09:06:59.360Z,23.80
2019-05-26T09:09:28.670Z,23.90
2019-05-26T09:11:57.685Z,23.90
2019-05-26T09:14:26.732Z,24.10
2019-05-26T09:16:56.075Z,24.20
2019-05-26T09:19:25.094Z,24.30
2019-05-26T09:21:54.073Z,24.40
2019-05-26T09:24:23.083Z,24.40
2019-05-26T09:26:52.383Z,24.40
2019-05-26T09:29:21.375Z,24.40
2019-05-26T09:31:50.354Z,24.40
2019-05-26T09:34:19.344Z,24.40
2019-05-26T09:36:48.398Z,24.50
2019-05-26T09:39:18.849Z,24.70
2019-05-26T09:41:47.829Z,24.80
2019-05-26T09:44:16.837Z,24.80
2019-05-26T09:46:45.839Z,24.90
2019-05-26T09:49:14.838Z,24.90
2019-05-26T09:51:43.830Z,25.00
2019-05-26T09:54:12.985Z,25.10
2019-05-26T09:56:42.511Z,25.20
2019-05-26T09:59:11.497Z,25.20
2019-05-26T10:01:40.506Z,25.20
2019-05-26T10:04:09.890Z,25.10
2019-05-26T10:06:38.891Z,25.10
2019-05-26T10:09:08.010Z,25.00
2019-05-26T10:11:37.010Z,25.00
2019-05-26T10:14:06.010Z,25.10
2019-05-26T10:16:35.012Z,25.20
2019-05-26T10:19:04.003Z,25.30
2019-05-26T10:21:33.534Z,25.30
2019-05-26T10:24:02.540Z,25.30
2019-05-26T10:26:31.533Z,25.20
2019-05-26T10:29:01.027Z,25.10
2019-05-26T10:31:30.185Z,25.20
2019-05-26T10:33:59.185Z,25.30
2019-05-26T10:36:28.658Z,25.20
2019-05-26T10:38:57.650Z,24.90
2019-05-26T10:41:27.066Z,25.00
2019-05-26T10:43:56.558Z,25.00
2019-05-26T10:46:25.967Z,25.10
2019-05-26T10:48:54.954Z,25.10
2019-05-26T10:51:24.054Z,25.10
2019-05-26T10:53:53.049Z,25.00
2019-05-26T10:56:22.459Z,25.00
2019-05-26T10:58:52.412Z,24.90
2019-05-26T11:01:21.421Z,24.90
2019-05-26T11:03:50.403Z,24.80
2019-05-26T11:06:19.409Z,24.90
2019-05-26T11:08:48.389Z,24.90
2019-05-26T11:11:17.385Z,24.90
2019-05-26T11:14:00.044Z,24.90
2019-05-26T11:16:17.673Z,24.80
2019-05-26T11:18:46.667Z,24.70
2019-05-26T11:21:15.973Z,24.70
2019-05-26T11:23:44.967Z,24.70
2019-05-26T11:26:13.953Z,24.70
2019-05-26T11:28:42.948Z,24.70
2019-05-26T11:31:12.338Z,24.60
2019-05-26T11:33:41.403Z,24.60
2019-05-26T11:36:10.848Z,24.60
2019-05-26T11:38:40.184Z,24.60
2019-05-26T11:41:09.168Z,24.60
2019-05-26T11:43:39.562Z,24.60
2019-05-26T11:46:08.967Z,24.70
2019-05-26T11:48:39.386Z,24.60
2019-05-26T11:51:08.653Z,24.60
2019-05-26T11:53:37.647Z,24.60
2019-05-26T11:56:06.983Z,24.70
2019-05-26T11:58:36.002Z,24.70
2019-05-26T12:01:04.973Z,24.60
2019-05-26T12:03:33.982Z,24.60
2019-05-26T12:06:02.967Z,24.60
2019-05-26T12:08:32.305Z,24.60
2019-05-26T12:11:01.370Z,24.70
2019-05-26T12:13:30.883Z,24.70
2019-05-26T12:15:59.864Z,24.70
2019-05-26T12:18:28.882Z,24.70
2019-05-26T12:20:57.870Z,24.70
2019-05-26T12:23:26.859Z,24.60
2019-05-26T12:25:55.851Z,24.70
2019-05-26T12:28:25.245Z,24.70
2019-05-26T12:30:54.629Z,24.70
2019-05-26T12:33:23.636Z,24.70
2019-05-26T12:35:52.634Z,24.70
2019-05-26T12:38:21.614Z,24.70
2019-05-26T12:40:50.633Z,24.70
2019-05-26T12:43:19.621Z,24.80
2019-05-26T12:45:48.611Z,24.90
2019-05-26T12:48:18.025Z,24.90
2019-05-26T12:50:46.987Z,24.90
2019-05-26T12:53:16.396Z,24.90
2019-05-26T12:55:45.369Z,24.90
2019-05-26T12:58:14.691Z,24.90
2019-05-26T13:00:49.049Z,24.80
2019-05-26T13:03:14.706Z,24.80
2019-05-26T13:05:43.998Z,24.90
2019-05-26T13:08:12.990Z,24.80
2019-05-26T13:10:41.977Z,24.80
2019-05-26T13:13:11.421Z,24.80
2019-05-26T13:15:40.419Z,24.80
2019-05-26T13:18:09.825Z,24.80
2019-05-26T13:20:38.836Z,24.70
2019-05-26T13:23:07.811Z,24.70
2019-05-26T13:25:36.820Z,24.70
2019-05-26T13:28:06.205Z,24.70
2019-05-26T13:30:36.822Z,24.70
2019-05-26T13:33:05.811Z,24.70
2019-05-26T13:35:34.827Z,24.70
2019-05-26T13:38:05.238Z,24.80
2019-05-26T13:40:34.348Z,24.80
2019-05-26T13:43:03.338Z,24.70
2019-05-26T13:45:34.141Z,24.80
2019-05-26T13:48:03.765Z,24.80
2019-05-26T13:50:32.755Z,24.90
2019-05-26T13:53:02.822Z,24.90
2019-05-26T13:55:32.187Z,24.80
2019-05-26T13:58:01.183Z,24.80
2019-05-26T14:00:30.165Z,24.80
2019-05-26T14:02:59.579Z,24.80
2019-05-26T14:05:28.562Z,24.80
2019-05-26T14:07:57.576Z,24.80
2019-05-26T14:10:30.725Z,24.70
2019-05-26T14:13:00.068Z,24.70
2019-05-26T14:15:37.928Z,24.60
2019-05-26T14:17:59.984Z,24.60
2019-05-26T14:20:33.180Z,24.60
2019-05-26T14:23:02.234Z,24.60
2019-05-26T14:25:31.462Z,24.60
2019-05-26T14:28:00.873Z,24.60
2019-05-26T14:30:30.185Z,24.70
2019-05-26T14:32:59.571Z,24.70
2019-05-26T14:35:28.562Z,24.70
2019-05-26T14:37:57.551Z,24.60
2019-05-26T14:40:26.532Z,24.60
2019-05-26T14:42:55.559Z,24.40
2019-05-26T14:45:24.853Z,24.40
2019-05-26T14:47:53.854Z,24.30
2019-05-26T14:50:23.817Z,24.30
2019-05-26T14:52:52.821Z,24.30
2019-05-26T14:55:22.154Z,24.30
2019-05-26T14:57:51.835Z,24.30
2019-05-26T15:00:21.677Z,24.30
2019-05-26T15:02:51.613Z,24.20
2019-05-26T15:05:21.475Z,24.00
2019-05-26T15:07:51.323Z,24.10
2019-05-26T15:10:22.752Z,24.10
2019-05-26T15:12:53.790Z,24.00
2019-05-26T15:15:23.686Z,24.00
2019-05-26T15:17:53.926Z,24.10
2019-05-26T15:20:23.792Z,24.00
2019-05-26T15:22:53.980Z,24.00
2019-05-26T15:25:23.826Z,24.00
2019-05-26T15:27:53.687Z,24.00
2019-05-26T15:30:23.925Z,24.00
2019-05-26T15:32:53.849Z,24.00
2019-05-26T15:35:23.688Z,24.00
2019-05-26T15:37:53.860Z,24.00
2019-05-26T15:40:23.707Z,24.00
2019-05-26T15:42:53.551Z,24.00
2019-05-26T15:45:23.397Z,24.00
2019-05-26T15:47:53.265Z,24.00
2019-05-26T15:50:23.118Z,24.00
2019-05-26T15:52:52.958Z,24.00
2019-05-26T15:55:22.890Z,23.90
2019-05-26T15:57:52.799Z,23.90
2019-05-26T16:00:22.723Z,24.00
2019-05-26T16:02:52.585Z,24.00
2019-05-26T16:05:22.449Z,23.90
2019-05-26T16:07:52.636Z,23.80
2019-05-26T16:10:22.494Z,23.70
2019-05-26T16:12:52.771Z,23.70
2019-05-26T16:15:22.663Z,23.60
2019-05-26T16:17:52.510Z,23.60
2019-05-26T16:20:22.714Z,23.60
2019-05-26T16:22:52.630Z,23.70
2019-05-26T16:25:22.532Z,23.60
2019-05-26T16:27:53.448Z,23.50
2019-05-26T16:30:23.316Z,23.60
2019-05-26T16:32:53.189Z,23.50
2019-05-26T16:35:23.350Z,23.60
2019-05-26T16:37:53.181Z,23.70
2019-05-26T16:40:23.039Z,23.70
2019-05-26T16:42:53.291Z,23.60
2019-05-26T16:45:23.163Z,23.70
2019-05-26T16:47:53.312Z,23.60
2019-05-26T16:50:23.463Z,23.70
2019-05-26T16:52:54.571Z,23.70
2019-05-26T16:55:24.766Z,23.70
2019-05-26T16:57:54.618Z,23.70
2019-05-26T17:00:24.457Z,23.70
2019-05-26T17:02:54.300Z,23.70
2019-05-26T17:05:42.368Z,23.70
2019-05-26T17:08:30.100Z,23.60
2019-05-26T17:11:00.343Z,23.50
2019-05-26T17:13:33.020Z,23.40
2019-05-26T17:16:01.669Z,23.30
2019-05-26T17:18:31.517Z,23.20
2019-05-26T17:21:01.366Z,23.20
2019-05-26T17:23:31.222Z,23.20
2019-05-26T17:26:01.062Z,23.20
2019-05-26T17:28:31.296Z,23.20
2019-05-26T17:31:01.129Z,23.10
2019-05-26T17:33:30.980Z,23.00
2019-05-26T17:36:00.831Z,23.00
2019-05-26T17:38:31.043Z,23.10
2019-05-26T17:41:01.276Z,23.10
2019-05-26T17:43:31.126Z,23.10
2019-05-26T17:46:00.977Z,23.00
2019-05-26T17:48:30.822Z,22.90
2019-05-26T17:51:00.675Z,23.00
2019-05-26T17:53:30.536Z,22.90
2019-05-26T17:56:00.382Z,22.90
2019-05-26T17:58:30.569Z,22.90
2019-05-26T18:01:00.410Z,22.80
2019-05-26T18:03:30.613Z,22.70
2019-05-26T18:06:00.467Z,22.70
2019-05-26T18:08:30.381Z,22.80
2019-05-26T18:11:00.221Z,22.60
2019-05-26T18:13:30.063Z,22.70
2019-05-26T18:15:59.906Z,22.70
2019-05-26T18:18:29.755Z,22.60
2019-05-26T18:20:59.617Z,22.60
2019-05-26T18:23:29.924Z,22.50
2019-05-26T18:25:59.765Z,22.50
2019-05-26T18:28:29.662Z,22.50
2019-05-26T18:30:59.581Z,22.50
2019-05-26T18:33:29.436Z,22.40
2019-05-26T18:35:59.279Z,22.30
2019-05-26T18:38:29.149Z,22.30
2019-05-26T18:40:58.994Z,22.30
2019-05-26T18:43:30.126Z,22.10
2019-05-26T18:46:00.483Z,22.10
2019-05-26T18:48:30.862Z,22.10
2019-05-26T18:51:00.729Z,22.00
2019-05-26T18:53:30.599Z,21.90
2019-05-26T18:56:00.439Z,21.80
2019-05-26T18:58:30.290Z,21.90
2019-05-26T19:01:00.154Z,21.80
2019-05-26T19:03:30.407Z,21.80
2019-05-26T19:06:00.259Z,21.70
2019-05-26T19:08:30.116Z,21.80
2019-05-26T19:10:59.963Z,21.80
2019-05-26T19:13:29.882Z,21.70
2019-05-26T19:15:59.750Z,21.80
2019-05-26T19:18:29.665Z,21.70
2019-05-26T19:20:59.538Z,21.60
2019-05-26T19:23:30.788Z,21.70
2019-05-26T19:26:00.634Z,21.70
2019-05-26T19:28:29.789Z,21.70
2019-05-26T19:30:58.784Z,21.70
2019-05-26T19:33:27.778Z,22.00
2019-05-26T19:35:57.173Z,22.20
2019-05-26T19:38:26.575Z,22.50
2019-05-26T19:40:55.989Z,22.60
2019-05-26T19:43:25.378Z,22.70
2019-05-26T19:45:54.370Z,22.60
2019-05-26T19:48:35.912Z,22.70
2019-05-26T19:50:54.897Z,22.70
2019-05-26T19:53:23.888Z,22.70
2019-05-26T19:55:52.967Z,22.70
2019-05-26T19:58:22.040Z,22.70
2019-05-26T20:00:51.416Z,22.60
2019-05-26T20:03:20.490Z,22.60
2019-05-26T20:05:49.621Z,22.60
2019-05-26T20:08:19.702Z,22.70
2019-05-26T20:10:48.735Z,22.70
2019-05-26T20:13:18.225Z,22.60
2019-05-26T20:15:47.301Z,22.50
2019-05-26T20:18:16.359Z,22.60
2019-05-26T20:20:45.435Z,22.60
2019-05-26T20:23:15.827Z,22.70
2019-05-26T20:25:44.847Z,22.70
2019-05-26T20:28:14.323Z,22.70
2019-05-26T20:30:43.744Z,22.70
2019-05-26T20:33:13.492Z,22.70
2019-05-26T20:35:43.339Z,22.60
2019-05-26T20:38:13.196Z,22.70
2019-05-26T20:40:43.040Z,22.70
2019-05-26T20:43:12.961Z,22.70
2019-05-26T20:45:42.808Z,22.70
2019-05-26T20:48:13.109Z,22.70
2019-05-26T20:50:42.946Z,22.70
2019-05-26T20:53:13.980Z,22.70
2019-05-26T20:55:44.289Z,22.70
2019-05-26T20:58:14.509Z,22.70
2019-05-26T21:00:44.365Z,22.70
2019-05-26T21:03:14.215Z,22.60
2019-05-26T21:05:46.099Z,22.60
2019-05-26T21:08:15.938Z,22.60
2019-05-26T21:10:45.813Z,22.60
2019-05-26T21:13:15.658Z,22.60
2019-05-26T21:15:45.962Z,22.60
2019-05-26T21:18:15.827Z,22.60
2019-05-26T21:20:45.680Z,22.50
2019-05-26T21:23:15.523Z,22.50
2019-05-26T21:25:45.723Z,22.50
2019-05-26T21:28:15.570Z,22.50
2019-05-26T21:30:45.420Z,22.50
2019-05-26T21:33:15.271Z,22.60
2019-05-26T21:35:45.112Z,22.50
2019-05-26T21:38:14.954Z,22.50
2019-05-26T21:40:44.813Z,22.50
2019-05-26T21:43:14.667Z,22.50
2019-05-26T21:45:44.509Z,22.40
2019-05-26T21:48:14.750Z,22.50
2019-05-26T21:50:44.975Z,22.50
2019-05-26T21:53:14.821Z,22.50
2019-05-26T21:55:45.126Z,22.40
2019-05-26T21:58:14.988Z,22.50
2019-05-26T22:00:46.073Z,22.40
2019-05-26T22:03:16.024Z,22.50
2019-05-26T22:05:45.871Z,22.50
2019-05-26T22:08:15.719Z,22.50
2019-05-26T22:10:45.566Z,22.40
2019-05-26T22:13:15.853Z,22.40
2019-05-26T22:15:45.694Z,22.40
2019-05-26T22:18:15.883Z,22.40
2019-05-26T22:20:45.721Z,22.40
2019-05-26T22:23:15.586Z,22.30
2019-05-26T22:25:45.433Z,22.30
2019-05-26T22:28:15.313Z,22.30
2019-05-26T22:30:45.160Z,22.30
2019-05-26T22:33:14.997Z,22.30
2019-05-26T22:35:45.288Z,22.30
2019-05-26T22:38:15.140Z,22.30
2019-05-26T22:40:45.318Z,22.20
2019-05-26T22:43:15.178Z,22.20
2019-05-26T22:45:45.021Z,22.20
2019-05-26T22:48:14.867Z,22.10
2019-05-26T22:50:44.717Z,22.00
2019-05-26T22:53:14.566Z,22.00
2019-05-26T22:55:44.807Z,21.90
2019-05-26T22:58:14.654Z,21.90
2019-05-26T23:00:44.499Z,22.00
2019-05-26T23:03:14.471Z,22.00
2019-05-26T23:05:44.321Z,22.00
2019-05-26T23:08:14.254Z,21.80
2019-05-26T23:10:44.876Z,21.80
2019-05-26T23:13:14.727Z,21.80
2019-05-26T23:15:44.564Z,21.70
2019-05-26T23:18:14.412Z,21.70
2019-05-26T23:20:44.675Z,21.70
2019-05-26T23:23:14.549Z,21.60
2019-05-26T23:25:44.751Z,21.60
2019-05-26T23:28:14.568Z,21.60
2019-05-26T23:30:44.674Z,21.50
2019-05-26T23:33:14.869Z,21.50
2019-05-26T23:35:44.729Z,21.50
2019-05-26T23:38:14.566Z,21.50
2019-05-26T23:40:44.430Z,21.50
2019-05-26T23:43:14.273Z,21.50
2019-05-26T23:45:44.118Z,21.50
2019-05-26T23:48:14.352Z,21.40
2019-05-26T23:50:44.206Z,21.20
2019-05-26T23:53:14.385Z,21.30
2019-05-26T23:55:44.624Z,21.50
2019-05-26T23:58:14.465Z,21.50
